createdAt,value
2019-02-15T00:03:11.945Z,23.85
2019-02-15T00:05:39.334Z,16.75
2019-02-15T00:08:06.792Z,20.62
2019-02-15T00:10:34.193Z,15.32
2019-02-15T00:13:01.597Z,13.90
2019-02-15T00:15:29.601Z,15.95
2019-02-15T00:20:49.161Z,22.50
2019-02-15T00:23:16.573Z,20.42
2019-02-15T00:25:44.032Z,19.00
2019-02-15T00:28:11.639Z,16.80
2019-02-15T00:30:39.030Z,27.27
2019-02-15T00:33:06.443Z,15.88
2019-02-15T00:35:33.858Z,16.25
2019-02-15T00:38:01.260Z,16.45
2019-02-15T00:40:28.672Z,18.62
2019-02-15T00:42:56.235Z,21.83
2019-02-15T00:45:23.663Z,24.37
2019-02-15T00:47:55.029Z,16.85
2019-02-15T00:50:37.299Z,24.58
2019-02-15T00:53:22.399Z,20.92
2019-02-15T00:55:49.803Z,17.70
2019-02-15T00:58:17.194Z,16.60
2019-02-15T01:00:55.166Z,15.18
2019-02-15T01:03:23.620Z,19.37
2019-02-15T01:05:56.673Z,16.55
2019-02-15T01:08:29.636Z,18.90
2019-02-15T01:10:57.075Z,17.30
2019-02-15T01:13:31.008Z,15.55
2019-02-15T01:15:51.959Z,12.95
2019-02-15T01:18:19.353Z,16.02
2019-02-15T01:20:46.751Z,14.00
2019-02-15T01:23:14.195Z,21.05
2019-02-15T01:25:41.602Z,16.60
2019-02-15T01:28:10.820Z,20.90
2019-02-15T01:30:46.852Z,20.33
2019-02-15T01:33:14.654Z,18.35
2019-02-15T01:35:42.413Z,21.90
2019-02-15T01:38:13.201Z,19.45
2019-02-15T01:40:43.327Z,21.87
2019-02-15T01:43:11.603Z,20.45
2019-02-15T01:45:39.534Z,22.30
2019-02-15T01:48:07.095Z,20.48
2019-02-15T01:50:34.495Z,26.87
2019-02-15T01:53:01.873Z,16.60
2019-02-15T01:55:30.058Z,19.67
2019-02-15T01:57:57.503Z,17.80
2019-02-15T02:00:24.908Z,23.25
2019-02-15T02:02:52.512Z,13.65
2019-02-15T02:05:19.899Z,36.30
2019-02-15T02:07:47.301Z,17.00
2019-02-15T02:10:14.700Z,20.27
2019-02-15T02:12:42.112Z,29.60
2019-02-15T02:15:09.522Z,14.07
2019-02-15T02:17:36.947Z,16.17
2019-02-15T02:20:04.371Z,18.73
2019-02-15T02:22:31.756Z,22.62
2019-02-15T02:24:59.189Z,23.40
2019-02-15T02:27:26.574Z,25.75
2019-02-15T02:29:53.975Z,19.67
2019-02-15T02:32:21.370Z,20.50
2019-02-15T02:34:48.763Z,19.30
2019-02-15T02:37:16.169Z,21.42
2019-02-15T02:39:43.598Z,19.83
2019-02-15T02:42:11.198Z,20.65
2019-02-15T02:44:38.614Z,23.15
2019-02-15T02:47:06.038Z,15.68
2019-02-15T02:49:33.442Z,22.87
2019-02-15T02:52:00.839Z,15.95
2019-02-15T02:54:28.263Z,19.05
2019-02-15T02:56:55.659Z,18.92
2019-02-15T02:59:23.064Z,25.00
2019-02-15T03:01:50.468Z,16.95
2019-02-15T03:04:17.889Z,15.13
2019-02-15T03:06:45.288Z,14.02
2019-02-15T03:09:12.679Z,19.00
2019-02-15T03:11:40.088Z,17.55
2019-02-15T03:14:11.455Z,18.33
2019-02-15T03:16:34.995Z,23.12
2019-02-15T03:19:02.412Z,11.43
2019-02-15T03:21:29.801Z,18.30
2019-02-15T03:23:57.213Z,14.38
2019-02-15T03:26:24.600Z,22.42
2019-02-15T03:28:51.995Z,15.02
2019-02-15T03:31:19.394Z,14.82
2019-02-15T03:33:46.804Z,17.20
2019-02-15T03:39:16.260Z,22.35
2019-02-15T03:41:43.743Z,17.80
2019-02-15T03:44:21.353Z,15.45
2019-02-15T03:46:38.756Z,15.30
2019-02-15T03:49:06.161Z,18.87
2019-02-15T03:51:33.595Z,17.65
2019-02-15T03:54:00.993Z,20.73
2019-02-15T03:56:28.402Z,16.55
2019-02-15T03:58:56.470Z,25.30
2019-02-15T04:01:23.870Z,17.48
2019-02-15T04:03:51.275Z,23.58
2019-02-15T04:06:18.666Z,16.48
2019-02-15T04:08:46.131Z,19.83
2019-02-15T04:11:13.544Z,14.10
2019-02-15T04:13:41.121Z,19.33
2019-02-15T04:16:08.530Z,15.52
2019-02-15T04:18:36.016Z,22.13
2019-02-15T04:21:03.486Z,16.65
2019-02-15T04:23:30.879Z,14.00
2019-02-15T04:25:58.283Z,16.87
2019-02-15T04:28:25.695Z,15.68
2019-02-15T04:30:53.127Z,25.30
2019-02-15T04:33:20.550Z,16.50
2019-02-15T04:35:48.027Z,14.95
2019-02-15T04:38:15.465Z,20.58
2019-02-15T04:40:42.872Z,18.33
2019-02-15T04:43:10.267Z,16.17
2019-02-15T04:45:37.715Z,18.15
2019-02-15T04:48:05.129Z,15.52
2019-02-15T04:50:32.529Z,18.15
2019-02-15T04:53:02.941Z,19.12
2019-02-15T04:55:27.443Z,19.80
2019-02-15T04:57:54.843Z,13.90
2019-02-15T05:00:22.275Z,16.17
2019-02-15T05:02:49.672Z,17.85
2019-02-15T05:05:17.071Z,14.70
2019-02-15T05:07:44.465Z,14.45
2019-02-15T05:10:11.924Z,22.02
2019-02-15T05:12:39.313Z,11.50
2019-02-15T05:15:06.707Z,14.02
2019-02-15T05:17:34.105Z,18.77
2019-02-15T05:20:01.887Z,14.60
2019-02-15T05:22:29.307Z,18.20
2019-02-15T05:24:56.744Z,14.73
2019-02-15T05:27:24.820Z,17.83
2019-02-15T05:29:52.305Z,14.68
2019-02-15T05:32:19.909Z,14.25
2019-02-15T05:34:47.303Z,15.73
2019-02-15T05:37:15.611Z,17.12
2019-02-15T05:39:43.016Z,23.15
2019-02-15T05:42:10.403Z,17.67
2019-02-15T05:44:37.853Z,15.25
2019-02-15T05:47:05.311Z,16.85
2019-02-15T05:49:32.714Z,14.20
2019-02-15T05:52:00.153Z,19.15
2019-02-15T05:54:27.611Z,17.65
2019-02-15T05:56:55.007Z,17.50
2019-02-15T05:59:22.402Z,13.65
2019-02-15T06:01:49.836Z,15.45
2019-02-15T06:04:17.224Z,16.80
2019-02-15T06:06:44.742Z,21.42
2019-02-15T06:09:12.192Z,25.88
2019-02-15T06:11:39.599Z,18.65
2019-02-15T06:14:07.121Z,26.90
2019-02-15T06:16:34.524Z,23.08
2019-02-15T06:19:01.992Z,13.98
2019-02-15T06:21:29.427Z,20.42
2019-02-15T06:23:57.065Z,17.75
2019-02-15T06:26:24.449Z,17.55
2019-02-15T06:28:51.887Z,14.25
2019-02-15T06:31:19.303Z,26.75
2019-02-15T06:33:46.722Z,16.52
2019-02-15T06:36:14.173Z,19.25
2019-02-15T06:38:41.578Z,20.15
2019-02-15T06:41:09.063Z,17.77
2019-02-15T06:43:36.489Z,18.55
2019-02-15T06:46:05.106Z,20.60
2019-02-15T06:48:32.643Z,13.98
2019-02-15T06:51:00.030Z,16.05
2019-02-15T06:53:27.435Z,22.37
2019-02-15T06:55:56.379Z,16.98
2019-02-15T06:58:23.790Z,17.85
2019-02-15T07:03:43.983Z,26.15
2019-02-15T07:06:12.291Z,21.45
2019-02-15T07:08:39.704Z,22.37
2019-02-15T07:11:07.105Z,16.92
2019-02-15T07:13:34.501Z,15.52
2019-02-15T07:16:01.941Z,14.82
2019-02-15T07:18:29.345Z,29.27
2019-02-15T07:20:56.743Z,18.45
2019-02-15T07:23:24.744Z,21.48
2019-02-15T07:25:52.144Z,21.30
2019-02-15T07:28:19.623Z,14.87
2019-02-15T07:30:47.005Z,17.85
2019-02-15T07:33:14.447Z,19.98
2019-02-15T07:35:41.852Z,16.25
2019-02-15T07:38:12.344Z,13.10
2019-02-15T07:40:39.903Z,18.75
2019-02-15T07:43:07.315Z,15.45
2019-02-15T07:45:42.628Z,22.92
2019-02-15T07:48:02.884Z,18.62
2019-02-15T07:50:30.310Z,22.35
2019-02-15T07:52:57.800Z,25.33
2019-02-15T07:55:25.325Z,28.12
2019-02-15T07:57:52.825Z,19.95
2019-02-15T08:00:21.136Z,27.55
2019-02-15T08:02:48.548Z,24.92
2019-02-15T08:05:15.999Z,20.83
2019-02-15T08:07:43.395Z,22.67
2019-02-15T08:10:10.812Z,27.27
2019-02-15T08:12:38.275Z,31.17
2019-02-15T08:15:05.685Z,27.73
2019-02-15T08:17:33.092Z,26.40
2019-02-15T08:20:00.560Z,29.48
2019-02-15T08:22:27.992Z,30.90
2019-02-15T08:24:55.993Z,25.70
2019-02-15T08:27:23.421Z,25.65
2019-02-15T08:29:50.816Z,28.40
2019-02-15T08:32:18.240Z,24.08
2019-02-15T08:34:45.643Z,26.37
2019-02-15T08:37:13.914Z,23.12
2019-02-15T08:39:40.645Z,20.00
2019-02-15T08:42:08.083Z,24.15
2019-02-15T08:44:35.527Z,21.55
2019-02-15T08:47:02.986Z,19.55
2019-02-15T08:49:30.644Z,19.85
2019-02-15T08:51:58.032Z,20.98
2019-02-15T08:54:25.470Z,23.67
2019-02-15T08:56:52.875Z,32.97
2019-02-15T08:59:20.319Z,25.80
2019-02-15T09:01:47.739Z,26.48
2019-02-15T09:04:15.197Z,21.00
2019-02-15T09:06:42.636Z,20.15
2019-02-15T09:09:10.897Z,24.33
2019-02-15T09:11:38.299Z,15.45
2019-02-15T09:14:05.731Z,24.40
2019-02-15T09:16:33.290Z,23.67
2019-02-15T09:19:00.682Z,21.50
2019-02-15T09:21:28.097Z,21.08
2019-02-15T09:23:55.491Z,20.12
2019-02-15T09:26:22.920Z,19.00
2019-02-15T09:28:50.326Z,19.40
2019-02-15T09:31:17.730Z,33.25
2019-02-15T09:33:45.164Z,21.40
2019-02-15T09:36:12.589Z,19.92
2019-02-15T09:38:40.007Z,22.02
2019-02-15T09:41:07.415Z,27.83
2019-02-15T09:43:34.831Z,27.35
2019-02-15T09:46:02.276Z,34.28
2019-02-15T09:48:30.254Z,33.92
2019-02-15T09:50:58.746Z,28.95
2019-02-15T09:53:26.164Z,26.52
2019-02-15T09:55:53.570Z,23.85
2019-02-15T09:58:21.014Z,27.83
2019-02-15T10:00:48.555Z,19.00
2019-02-15T10:03:15.899Z,22.98
2019-02-15T10:05:43.296Z,18.42
2019-02-15T10:08:10.822Z,19.05
2019-02-15T10:10:38.241Z,21.75
2019-02-15T10:13:05.635Z,21.45
2019-02-15T10:15:33.035Z,19.95
2019-02-15T10:18:00.451Z,20.35
2019-02-15T10:20:28.071Z,23.33
2019-02-15T10:22:55.468Z,23.02
2019-02-15T10:25:22.898Z,24.15
2019-02-15T10:27:50.301Z,22.95
2019-02-15T10:30:17.743Z,22.80
2019-02-15T10:32:45.159Z,23.65
2019-02-15T10:35:12.660Z,25.33
2019-02-15T10:37:40.125Z,24.80
2019-02-15T10:40:07.543Z,24.87
2019-02-15T10:42:34.976Z,21.27
2019-02-15T10:45:02.540Z,26.17
2019-02-15T10:47:29.946Z,25.12
2019-02-15T10:49:57.377Z,27.65
2019-02-15T10:52:24.823Z,28.02
2019-02-15T10:54:52.278Z,24.60
2019-02-15T10:57:19.749Z,27.10
2019-02-15T10:59:47.183Z,34.50
2019-02-15T11:02:14.587Z,34.67
2019-02-15T11:04:42.011Z,30.05
2019-02-15T11:07:09.423Z,27.62
2019-02-15T11:58:37.689Z,25.40
2019-02-15T12:01:05.099Z,23.48
2019-02-15T12:03:32.519Z,22.73
2019-02-15T12:05:59.964Z,26.55
2019-02-15T12:08:27.529Z,27.52
2019-02-15T12:10:54.951Z,23.23
2019-02-15T12:13:22.899Z,28.15
2019-02-15T12:15:50.359Z,19.35
2019-02-15T12:18:17.772Z,21.20
2019-02-15T12:20:45.188Z,28.12
2019-02-15T12:23:12.607Z,23.40
2019-02-15T12:25:40.058Z,27.95
2019-02-15T12:28:07.466Z,26.65
2019-02-15T12:30:34.935Z,21.80
2019-02-15T12:33:02.381Z,25.90
2019-02-15T12:35:29.958Z,22.62
2019-02-15T12:37:57.348Z,21.58
2019-02-15T12:40:24.746Z,21.62
2019-02-15T12:42:52.164Z,21.10
2019-02-15T12:45:19.683Z,23.27
2019-02-15T12:47:47.208Z,21.10
2019-02-15T12:50:15.335Z,22.15
2019-02-15T12:52:42.743Z,27.00
2019-02-15T12:55:10.642Z,17.73
2019-02-15T12:57:38.107Z,23.48
2019-02-15T13:00:06.340Z,18.65
2019-02-15T13:02:33.836Z,23.80
2019-02-15T13:05:01.249Z,20.42
2019-02-15T13:07:28.952Z,20.90
2019-02-15T13:09:57.119Z,20.40
2019-02-15T13:12:24.524Z,19.85
2019-02-15T13:14:51.947Z,25.92
2019-02-15T13:17:24.784Z,28.62
2019-02-15T13:19:46.834Z,29.23
2019-02-15T13:22:14.442Z,19.90
2019-02-15T13:24:43.242Z,24.67
2019-02-15T13:27:09.335Z,25.40
2019-02-15T13:29:36.836Z,26.37
2019-02-15T13:32:04.257Z,28.62
2019-02-15T13:34:31.698Z,27.83
2019-02-15T13:36:59.199Z,22.27
2019-02-15T13:39:27.254Z,22.15
2019-02-15T13:41:54.684Z,21.73
2019-02-15T13:44:22.083Z,24.73
2019-02-15T13:46:49.531Z,23.23
2019-02-15T13:49:16.958Z,27.45
2019-02-15T13:51:45.406Z,23.70
2019-02-15T13:54:12.810Z,21.80
2019-02-15T13:56:40.672Z,22.55
2019-02-15T13:59:07.806Z,29.83
2019-02-15T14:01:35.199Z,21.25
2019-02-15T14:04:02.647Z,25.50
2019-02-15T14:06:30.067Z,23.20
2019-02-15T14:08:57.539Z,24.40
2019-02-15T14:11:25.927Z,20.15
2019-02-15T14:13:54.314Z,20.35
2019-02-15T14:16:21.751Z,27.33
2019-02-15T14:18:49.219Z,23.00
2019-02-15T14:21:16.617Z,22.60
2019-02-15T14:23:44.089Z,16.85
2019-02-15T14:26:11.503Z,22.65
2019-02-15T14:28:38.916Z,18.12
2019-02-15T14:31:06.910Z,24.52
2019-02-15T14:33:34.309Z,22.15
2019-02-15T14:36:01.731Z,39.60
2019-02-15T14:38:29.183Z,28.98
2019-02-15T14:40:56.600Z,29.20
2019-02-15T14:43:24.055Z,27.45
2019-02-15T14:45:51.954Z,28.12
2019-02-15T14:48:20.140Z,29.30
2019-02-15T14:50:46.816Z,35.00
2019-02-15T14:53:14.242Z,22.67
2019-02-15T14:55:41.646Z,27.92
2019-02-15T14:58:09.257Z,29.65
2019-02-15T15:00:36.731Z,33.97
2019-02-15T15:03:04.083Z,35.05
2019-02-15T15:05:31.559Z,30.45
2019-02-15T15:07:58.975Z,33.42
2019-02-15T15:10:26.735Z,37.83
2019-02-15T15:12:54.664Z,38.45
2019-02-15T15:15:22.226Z,29.85
2019-02-15T15:17:50.137Z,29.77
2019-02-15T15:20:17.130Z,38.95
2019-02-15T15:22:44.553Z,40.72
2019-02-15T15:25:12.079Z,41.85
2019-02-15T15:27:39.655Z,40.58
2019-02-15T15:30:07.742Z,44.88
2019-02-15T15:32:35.182Z,46.83
2019-02-15T15:35:02.567Z,55.73
2019-02-15T15:37:30.014Z,44.47
2019-02-15T15:39:57.467Z,45.87
2019-02-15T15:42:24.906Z,42.30
2019-02-15T15:44:52.309Z,37.87
2019-02-15T15:47:19.780Z,39.90
2019-02-15T15:49:47.197Z,48.55
2019-02-15T15:52:14.660Z,44.03
2019-02-15T15:54:42.216Z,43.42
2019-02-15T15:57:09.739Z,40.33
2019-02-15T15:59:37.180Z,50.10
2019-02-15T16:02:04.697Z,38.55
2019-02-15T16:04:32.124Z,34.67
2019-02-15T16:06:59.531Z,35.65
2019-02-15T16:09:27.029Z,31.12
2019-02-15T16:11:54.535Z,25.25
2019-02-15T16:14:21.977Z,29.10
2019-02-15T16:16:49.415Z,31.15
2019-02-15T16:21:44.485Z,33.97
2019-02-15T16:24:12.836Z,31.98
2019-02-15T16:26:38.662Z,29.08
2019-02-15T16:29:06.207Z,22.67
2019-02-15T16:31:33.661Z,24.98
2019-02-15T16:34:01.365Z,23.10
2019-02-15T16:36:28.764Z,17.08
2019-02-15T16:38:57.057Z,18.08
2019-02-15T16:41:24.485Z,22.80
2019-02-15T16:43:51.892Z,19.42
2019-02-15T16:46:19.295Z,21.52
2019-02-15T16:48:47.501Z,20.42
2019-02-15T16:51:14.970Z,20.17
2019-02-15T16:53:42.616Z,19.58
2019-02-15T16:56:10.043Z,21.45
2019-02-15T16:58:37.439Z,22.67
2019-02-15T17:01:04.858Z,26.98
2019-02-15T17:03:32.273Z,29.00
2019-02-15T17:05:59.708Z,29.90
2019-02-15T17:08:27.223Z,24.37
2019-02-15T17:10:54.642Z,19.90
2019-02-15T17:13:22.046Z,21.27
2019-02-15T17:15:49.454Z,20.20
2019-02-15T17:18:16.887Z,22.70
2019-02-15T17:20:44.309Z,18.90
2019-02-15T17:23:11.899Z,29.70
2019-02-15T17:25:39.302Z,24.75
2019-02-15T17:28:06.702Z,18.52
2019-02-15T17:30:34.138Z,22.65
2019-02-15T17:33:01.559Z,19.98
2019-02-15T17:35:28.972Z,25.48
2019-02-15T17:37:56.370Z,22.70
2019-02-15T17:40:23.773Z,24.65
2019-02-15T17:42:51.241Z,18.60
2019-02-15T17:45:18.803Z,21.23
2019-02-15T17:47:46.267Z,22.20
2019-02-15T17:50:13.671Z,18.60
2019-02-15T17:52:41.189Z,31.95
2019-02-15T17:55:09.415Z,17.10
2019-02-15T17:57:36.862Z,24.75
2019-02-15T18:00:04.259Z,30.48
2019-02-15T18:02:31.672Z,17.05
2019-02-15T18:04:59.292Z,17.75
2019-02-15T18:07:26.748Z,19.58
2019-02-15T18:09:54.155Z,24.40
2019-02-15T18:12:21.574Z,29.42
2019-02-15T18:14:48.973Z,20.35
2019-02-15T18:17:16.512Z,27.65
2019-02-15T18:19:47.242Z,20.02
2019-02-15T18:22:11.377Z,24.12
2019-02-15T18:24:38.784Z,31.20
2019-02-15T18:27:06.216Z,33.20
2019-02-15T18:29:33.655Z,29.58
2019-02-15T18:32:02.145Z,22.05
2019-02-15T18:34:29.587Z,21.25
2019-02-15T18:36:56.979Z,22.65
2019-02-15T18:39:24.404Z,19.45
2019-02-15T18:41:51.831Z,21.90
2019-02-15T18:44:19.259Z,17.08
2019-02-15T18:46:46.659Z,23.48
2019-02-15T18:49:19.403Z,25.77
2019-02-15T18:51:41.798Z,20.98
2019-02-15T18:54:09.247Z,21.17
2019-02-15T18:56:36.786Z,19.20
2019-02-15T18:59:04.350Z,29.20
2019-02-15T19:01:31.837Z,17.85
2019-02-15T19:03:59.243Z,23.42
2019-02-15T19:06:26.680Z,22.95
2019-02-15T19:08:54.137Z,27.80
2019-02-15T19:11:21.608Z,31.60
2019-02-15T19:13:49.031Z,25.65
2019-02-15T19:16:16.509Z,30.83
2019-02-15T19:18:43.944Z,24.48
2019-02-15T19:21:11.483Z,24.77
2019-02-15T19:23:38.887Z,21.90
2019-02-15T19:26:06.374Z,27.33
2019-02-15T19:28:34.772Z,24.40
2019-02-15T19:31:02.190Z,23.35
2019-02-15T19:33:29.625Z,28.95
2019-02-15T19:35:57.026Z,23.73
2019-02-15T19:38:24.536Z,18.65
2019-02-15T19:40:52.086Z,24.52
2019-02-15T19:43:19.504Z,19.17
2019-02-15T19:45:46.930Z,23.90
2019-02-15T19:48:14.369Z,22.40
2019-02-15T19:50:41.785Z,25.77
2019-02-15T19:53:09.280Z,24.58
2019-02-15T19:55:36.722Z,28.75
2019-02-15T19:58:04.269Z,24.87
2019-02-15T20:00:31.715Z,22.33
2019-02-15T20:02:59.210Z,26.12
2019-02-15T20:05:26.639Z,29.83
2019-02-15T20:07:54.251Z,31.02
2019-02-15T20:10:21.652Z,19.67
2019-02-15T20:12:49.122Z,21.85
2019-02-15T20:15:16.511Z,23.45
2019-02-15T20:17:44.013Z,19.08
2019-02-15T20:20:12.285Z,25.45
2019-02-15T20:22:39.760Z,28.85
2019-02-15T20:25:07.275Z,24.17
2019-02-15T20:27:34.892Z,21.48
2019-02-15T20:30:03.445Z,29.27
2019-02-15T20:32:29.794Z,24.50
2019-02-15T20:34:57.232Z,20.17
2019-02-15T20:37:24.614Z,24.90
2019-02-15T20:39:52.122Z,31.35
2019-02-15T20:42:19.591Z,20.73
2019-02-15T20:44:47.021Z,23.33
2019-02-15T20:47:15.162Z,23.83
2019-02-15T20:49:42.931Z,20.65
2019-02-15T20:52:10.335Z,22.83
2019-02-15T20:54:38.690Z,24.98
2019-02-15T20:57:06.127Z,21.70
2019-02-15T20:59:33.573Z,23.23
2019-02-15T21:02:01.023Z,22.58
2019-02-15T21:04:28.463Z,23.10
2019-02-15T21:06:55.889Z,17.73
2019-02-15T21:09:23.291Z,19.08
2019-02-15T21:11:50.748Z,22.85
2019-02-15T21:14:18.224Z,22.67
2019-02-15T21:16:45.679Z,19.90
2019-02-15T21:19:13.114Z,18.10
2019-02-15T21:21:40.646Z,18.27
2019-02-15T21:24:08.074Z,22.27
2019-02-15T21:26:35.514Z,22.85
2019-02-15T21:29:02.967Z,20.30
2019-02-15T21:31:30.360Z,23.70
2019-02-15T21:33:57.793Z,21.55
2019-02-15T21:36:25.194Z,21.10
2019-02-15T21:38:53.427Z,23.23
2019-02-15T21:41:20.836Z,30.37
2019-02-15T21:43:48.234Z,21.87
2019-02-15T21:46:15.658Z,18.65
2019-02-15T21:48:43.051Z,30.15
2019-02-15T21:51:10.523Z,24.75
2019-02-15T21:53:37.961Z,20.05
2019-02-15T21:56:05.472Z,23.50
2019-02-15T21:58:32.878Z,23.90
2019-02-15T22:01:01.476Z,26.27
2019-02-15T22:03:27.800Z,28.90
2019-02-15T22:05:55.220Z,25.08
2019-02-15T22:08:22.705Z,18.80
2019-02-15T22:10:50.144Z,21.73
2019-02-15T22:13:17.582Z,18.85
2019-02-15T22:15:45.260Z,20.40
2019-02-15T22:18:12.678Z,25.70
2019-02-15T22:20:40.177Z,20.95
2019-02-15T22:23:07.599Z,22.98
2019-02-15T22:25:34.998Z,18.55
2019-02-15T22:28:02.411Z,25.05
2019-02-15T22:30:29.804Z,17.55
2019-02-15T22:32:57.289Z,20.25
2019-02-15T22:35:24.714Z,18.15
2019-02-15T22:37:52.091Z,21.83
2019-02-15T22:40:28.689Z,16.70
2019-02-15T22:42:56.115Z,33.22
2019-02-15T22:45:23.529Z,27.02
2019-02-15T22:47:51.711Z,19.80
2019-02-15T22:50:19.283Z,22.27
2019-02-15T22:52:46.835Z,17.83
2019-02-15T22:55:15.003Z,25.52
2019-02-15T22:57:42.408Z,25.25
2019-02-15T23:00:16.323Z,25.08
2019-02-15T23:02:43.893Z,20.65
2019-02-15T23:05:11.399Z,25.70
2019-02-15T23:07:39.863Z,25.90
2019-02-15T23:10:07.283Z,19.35
2019-02-15T23:12:34.684Z,18.15
2019-02-15T23:15:02.101Z,20.37
2019-02-15T23:17:29.499Z,23.65
2019-02-15T23:19:56.895Z,23.58
2019-02-15T23:22:24.418Z,23.40
2019-02-15T23:24:51.877Z,21.30
2019-02-15T23:27:19.310Z,22.95
2019-02-15T23:29:47.043Z,23.27
2019-02-15T23:32:14.244Z,19.75
2019-02-15T23:34:41.660Z,17.65
2019-02-15T23:37:09.062Z,25.85
2019-02-15T23:39:36.459Z,24.27
2019-02-15T23:42:03.867Z,21.92
2019-02-15T23:44:31.294Z,25.55
2019-02-15T23:46:58.750Z,20.62
2019-02-15T23:49:26.166Z,25.33
2019-02-15T23:51:53.706Z,17.75
2019-02-15T23:54:21.105Z,26.25
2019-02-15T23:56:48.503Z,23.00
2019-02-15T23:59:15.935Z,22.00
